createdAt,value
2017-01-31T00:00:05.165Z,922.49
2017-01-31T00:00:33.160Z,922.52
2017-01-31T00:01:01.937Z,922.52
2017-01-31T00:01:29.895Z,922.53
2017-01-31T00:01:58.669Z,922.53
2017-01-31T00:02:26.741Z,922.56
2017-01-31T00:02:54.761Z,922.56
2017-01-31T00:03:22.736Z,922.49
2017-01-31T00:03:50.676Z,922.53
2017-01-31T00:04:18.906Z,922.56
2017-01-31T00:04:47.047Z,922.59
2017-01-31T00:05:14.974Z,922.6
2017-01-31T00:05:42.851Z,922.59
2017-01-31T00:06:10.745Z,922.58
2017-01-31T00:06:38.923Z,922.6
2017-01-31T00:07:07.804Z,922.63
2017-01-31T00:07:35.826Z,922.6
2017-01-31T00:08:03.920Z,922.63
2017-01-31T00:08:32.248Z,922.63
2017-01-31T00:09:00.336Z,922.65
2017-01-31T00:09:28.317Z,922.63
2017-01-31T00:09:56.320Z,922.59
2017-01-31T00:10:24.336Z,922.59
2017-01-31T00:11:30.687Z,922.6
2017-01-31T00:11:58.493Z,922.59
2017-01-31T00:12:27.329Z,922.59
2017-01-31T00:12:55.358Z,922.6
2017-01-31T00:13:23.213Z,922.61
2017-01-31T00:13:51.175Z,922.62
2017-01-31T00:14:19.278Z,922.61
2017-01-31T00:14:47.405Z,922.62
2017-01-31T00:15:15.422Z,922.61
2017-01-31T00:15:43.367Z,922.63
2017-01-31T00:16:11.370Z,922.63
2017-01-31T00:16:40.237Z,922.64
2017-01-31T00:17:08.236Z,922.63
2017-01-31T00:17:36.207Z,922.67
2017-01-31T00:18:04.275Z,922.67
2017-01-31T00:18:32.369Z,922.65
2017-01-31T00:19:01.208Z,922.68
2017-01-31T00:19:29.341Z,922.67
2017-01-31T00:19:57.344Z,922.67
2017-01-31T00:20:26.154Z,922.7
2017-01-31T00:20:54.158Z,922.69
2017-01-31T00:21:22.219Z,922.71
2017-01-31T00:21:50.135Z,922.72
2017-01-31T00:22:18.832Z,922.69
2017-01-31T00:22:47.637Z,922.7
2017-01-31T00:23:15.758Z,922.75
2017-01-31T00:23:44.622Z,922.75
2017-01-31T00:24:13.409Z,922.76
2017-01-31T00:24:41.487Z,922.74
2017-01-31T00:25:09.466Z,922.76
2017-01-31T00:25:38.266Z,922.77
2017-01-31T00:26:06.324Z,922.75
2017-01-31T00:26:35.009Z,922.75
2017-01-31T00:27:03.116Z,922.76
2017-01-31T00:27:31.851Z,922.74
2017-01-31T00:27:59.874Z,922.74
2017-01-31T00:28:27.956Z,922.72
2017-01-31T00:28:56.020Z,922.74
2017-01-31T00:29:24.854Z,922.74
2017-01-31T00:29:53.732Z,922.73
2017-01-31T00:30:21.627Z,922.75
2017-01-31T00:30:49.641Z,922.72
2017-01-31T00:31:19.081Z,922.74
2017-01-31T00:31:46.959Z,922.69
2017-01-31T00:32:14.952Z,922.69
2017-01-31T00:32:42.921Z,922.75
2017-01-31T00:33:10.801Z,922.7
2017-01-31T00:33:38.846Z,922.78
2017-01-31T00:34:06.705Z,922.71
2017-01-31T00:34:34.599Z,922.73
2017-01-31T00:35:02.677Z,922.7
2017-01-31T00:35:30.587Z,922.75
2017-01-31T00:35:58.646Z,922.74
2017-01-31T00:36:27.311Z,922.72
2017-01-31T00:36:56.082Z,922.78
2017-01-31T00:37:24.921Z,922.76
2017-01-31T00:37:53.788Z,922.76
2017-01-31T00:38:21.761Z,922.78
2017-01-31T00:38:49.628Z,922.82
2017-01-31T00:39:18.306Z,922.8
2017-01-31T00:39:46.213Z,922.79
2017-01-31T00:40:14.179Z,922.8
2017-01-31T00:40:42.968Z,922.79
2017-01-31T00:41:11.740Z,922.8
2017-01-31T00:41:39.836Z,922.79
2017-01-31T00:42:07.740Z,922.79
2017-01-31T00:42:36.679Z,922.7
2017-01-31T00:43:04.665Z,922.79
2017-01-31T00:43:32.542Z,922.79
2017-01-31T00:44:00.549Z,922.8
2017-01-31T00:44:29.478Z,922.81
2017-01-31T00:44:57.451Z,922.77
2017-01-31T00:45:25.303Z,922.81
2017-01-31T00:45:53.285Z,922.81
2017-01-31T00:46:21.343Z,922.85
2017-01-31T00:46:49.392Z,922.83
2017-01-31T00:47:17.392Z,922.81
2017-01-31T00:47:45.300Z,922.82
2017-01-31T00:48:13.323Z,922.8
2017-01-31T00:48:42.191Z,922.83
2017-01-31T00:49:10.272Z,922.82
2017-01-31T00:49:38.469Z,922.86
2017-01-31T00:50:45.590Z,922.84
2017-01-31T00:51:14.354Z,922.87
2017-01-31T00:51:43.125Z,922.83
2017-01-31T00:52:11.994Z,922.86
2017-01-31T00:52:40.770Z,922.86
2017-01-31T00:53:08.774Z,922.82
2017-01-31T00:53:36.579Z,922.87
2017-01-31T00:54:04.547Z,922.84
2017-01-31T00:54:32.709Z,922.83
2017-01-31T00:55:00.722Z,922.84
2017-01-31T00:55:28.622Z,922.82
2017-01-31T00:55:56.571Z,922.84
2017-01-31T00:56:25.344Z,922.84
2017-01-31T00:56:53.426Z,922.8
2017-01-31T00:57:21.226Z,922.82
2017-01-31T00:57:49.353Z,922.85
2017-01-31T00:58:18.084Z,922.83
2017-01-31T00:58:46.896Z,922.84
2017-01-31T00:59:15.584Z,922.82
2017-01-31T00:59:43.802Z,922.82
2017-01-31T01:00:11.627Z,922.81
2017-01-31T01:00:39.504Z,922.82
2017-01-31T01:01:07.511Z,922.8
2017-01-31T01:01:35.510Z,922.82
2017-01-31T01:02:03.520Z,922.79
2017-01-31T01:02:31.433Z,922.83
2017-01-31T01:03:00.207Z,922.77
2017-01-31T01:03:28.979Z,922.79
2017-01-31T01:03:56.967Z,922.82
2017-01-31T01:04:24.752Z,922.86
2017-01-31T01:04:52.987Z,922.84
2017-01-31T01:05:20.847Z,922.8
2017-01-31T01:05:48.735Z,922.8
2017-01-31T01:06:16.471Z,922.82
2017-01-31T01:06:44.943Z,922.84
2017-01-31T01:07:12.819Z,922.82
2017-01-31T01:07:40.525Z,922.8
2017-01-31T01:08:08.399Z,922.83
2017-01-31T01:08:36.259Z,922.81
2017-01-31T01:09:04.168Z,922.8
2017-01-31T01:09:32.939Z,922.78
2017-01-31T01:10:00.938Z,922.78
2017-01-31T01:10:28.892Z,922.82
2017-01-31T01:10:56.751Z,922.79
2017-01-31T01:11:24.559Z,922.84
2017-01-31T01:11:52.334Z,922.82
2017-01-31T01:12:20.209Z,922.85
2017-01-31T01:12:48.048Z,922.82
2017-01-31T01:13:15.989Z,922.85
2017-01-31T01:13:43.865Z,922.83
2017-01-31T01:14:12.624Z,922.84
2017-01-31T01:14:40.726Z,922.83
2017-01-31T01:15:09.644Z,922.85
2017-01-31T01:15:37.603Z,922.84
2017-01-31T01:16:05.592Z,922.86
2017-01-31T01:16:33.608Z,922.86
2017-01-31T01:17:02.293Z,922.85
2017-01-31T01:17:30.922Z,922.86
2017-01-31T01:17:58.913Z,922.86
2017-01-31T01:18:26.895Z,922.85
2017-01-31T01:18:54.787Z,922.86
2017-01-31T01:19:22.747Z,922.81
2017-01-31T01:19:50.873Z,922.82
2017-01-31T01:20:19.468Z,922.83
2017-01-31T01:20:48.171Z,922.78
2017-01-31T01:21:15.968Z,922.83
2017-01-31T01:21:44.015Z,922.78
2017-01-31T01:22:11.811Z,922.8
2017-01-31T01:22:40.465Z,922.81
2017-01-31T01:23:08.192Z,922.78
2017-01-31T01:23:36.178Z,922.76
2017-01-31T01:24:04.137Z,922.77
2017-01-31T01:24:31.986Z,922.78
2017-01-31T01:24:59.951Z,922.78
2017-01-31T01:25:27.815Z,922.83
2017-01-31T01:25:55.585Z,922.77
2017-01-31T01:26:23.480Z,922.8
2017-01-31T01:26:52.149Z,922.84
2017-01-31T01:27:21.017Z,922.79
2017-01-31T01:27:49.001Z,922.82
2017-01-31T01:28:16.973Z,922.81
2017-01-31T01:28:44.972Z,922.81
2017-01-31T01:29:51.053Z,922.8
2017-01-31T01:30:18.932Z,922.8
2017-01-31T01:30:46.809Z,922.84
2017-01-31T01:31:14.723Z,922.79
2017-01-31T01:31:43.393Z,922.77
2017-01-31T01:32:12.865Z,922.8
2017-01-31T01:32:41.634Z,922.8
2017-01-31T01:33:10.219Z,922.8
2017-01-31T01:33:39.041Z,922.8
2017-01-31T01:34:07.014Z,922.8
2017-01-31T01:34:35.777Z,922.75
2017-01-31T01:35:03.730Z,922.7
2017-01-31T01:35:32.399Z,922.7
2017-01-31T01:36:00.995Z,922.77
2017-01-31T01:36:28.962Z,922.74
2017-01-31T01:36:56.860Z,922.74
2017-01-31T01:37:25.511Z,922.73
2017-01-31T01:37:53.215Z,922.73
2017-01-31T01:38:21.201Z,922.74
2017-01-31T01:38:49.034Z,922.71
2017-01-31T01:39:16.939Z,922.68
2017-01-31T01:39:44.720Z,922.7
2017-01-31T01:40:13.498Z,922.71
2017-01-31T01:40:41.300Z,922.72
2017-01-31T01:41:09.207Z,922.69
2017-01-31T01:41:37.133Z,922.73
2017-01-31T01:42:05.725Z,922.68
2017-01-31T01:42:34.409Z,922.7
2017-01-31T01:43:02.305Z,922.68
2017-01-31T01:43:30.885Z,922.64
2017-01-31T01:43:58.877Z,922.68
2017-01-31T01:44:26.830Z,922.68
2017-01-31T01:44:54.803Z,922.67
2017-01-31T01:45:22.725Z,922.7
2017-01-31T01:45:50.579Z,922.66
2017-01-31T01:46:18.459Z,922.65
2017-01-31T01:46:46.314Z,922.66
2017-01-31T01:47:14.010Z,922.67
2017-01-31T01:47:41.781Z,922.73
2017-01-31T01:48:10.560Z,922.65
2017-01-31T01:48:38.439Z,922.69
2017-01-31T01:49:07.138Z,922.66
2017-01-31T01:49:34.916Z,922.67
2017-01-31T01:50:03.664Z,922.64
2017-01-31T01:50:33.254Z,922.69
2017-01-31T01:51:01.212Z,922.67
2017-01-31T01:51:29.080Z,922.66
2017-01-31T01:51:57.107Z,922.69
2017-01-31T01:52:24.945Z,922.7
2017-01-31T01:52:52.728Z,922.65
2017-01-31T01:53:20.609Z,922.71
2017-01-31T01:53:48.598Z,922.72
2017-01-31T01:54:16.450Z,922.69
2017-01-31T01:54:44.255Z,922.71
2017-01-31T01:55:12.160Z,922.74
2017-01-31T01:55:41.735Z,922.73
2017-01-31T01:56:09.630Z,922.74
2017-01-31T01:56:37.640Z,922.73
2017-01-31T01:57:05.610Z,922.71
2017-01-31T01:57:33.503Z,922.75
2017-01-31T01:58:01.121Z,922.75
2017-01-31T01:58:29.598Z,922.77
2017-01-31T01:58:57.587Z,922.75
2017-01-31T01:59:26.361Z,922.7
2017-01-31T01:59:54.268Z,922.68
2017-01-31T02:00:22.252Z,922.74
2017-01-31T02:00:50.299Z,922.69
2017-01-31T02:01:18.273Z,922.7
2017-01-31T02:01:46.133Z,922.68
2017-01-31T02:02:14.124Z,922.71
2017-01-31T02:02:42.020Z,922.71
2017-01-31T02:03:09.797Z,922.71
2017-01-31T02:03:37.550Z,922.73
2017-01-31T02:04:05.436Z,922.73
2017-01-31T02:04:33.383Z,922.76
2017-01-31T02:05:01.241Z,922.73
2017-01-31T02:05:29.390Z,922.8
2017-01-31T02:05:57.378Z,922.78
2017-01-31T02:06:25.295Z,922.81
2017-01-31T02:06:53.278Z,922.77
2017-01-31T02:07:20.978Z,922.79
2017-01-31T02:07:48.974Z,922.75
2017-01-31T02:08:55.145Z,922.76
2017-01-31T02:09:23.022Z,922.81
2017-01-31T02:09:50.989Z,922.76
2017-01-31T02:10:19.761Z,922.81
2017-01-31T02:10:47.741Z,922.76
2017-01-31T02:11:15.636Z,922.78
2017-01-31T02:11:43.619Z,922.78
2017-01-31T02:12:11.577Z,922.77
2017-01-31T02:12:39.573Z,922.75
2017-01-31T02:13:07.489Z,922.78
2017-01-31T02:13:35.290Z,922.78
2017-01-31T02:14:03.223Z,922.78
2017-01-31T02:14:31.013Z,922.77
2017-01-31T02:14:58.994Z,922.82
2017-01-31T02:15:27.742Z,922.75
2017-01-31T02:15:56.537Z,922.73
2017-01-31T02:16:24.496Z,922.79
2017-01-31T02:16:52.384Z,922.78
2017-01-31T02:17:20.368Z,922.79
2017-01-31T02:17:48.381Z,922.77
2017-01-31T02:18:16.189Z,922.79
2017-01-31T02:18:43.995Z,922.76
2017-01-31T02:19:14.280Z,922.77
2017-01-31T02:19:42.955Z,922.74
2017-01-31T02:20:11.059Z,922.72
2017-01-31T02:20:38.902Z,922.77
2017-01-31T02:21:06.812Z,922.73
2017-01-31T02:21:34.619Z,922.74
2017-01-31T02:22:02.430Z,922.7
2017-01-31T02:22:30.390Z,922.72
2017-01-31T02:22:59.002Z,922.71
2017-01-31T02:23:26.864Z,922.69
2017-01-31T02:23:54.758Z,922.7
2017-01-31T02:24:22.762Z,922.71
2017-01-31T02:24:50.709Z,922.73
2017-01-31T02:25:18.583Z,922.69
2017-01-31T02:25:47.262Z,922.72
2017-01-31T02:26:15.922Z,922.69
2017-01-31T02:26:44.648Z,922.69
2017-01-31T02:27:12.642Z,922.7
2017-01-31T02:27:40.606Z,922.68
2017-01-31T02:28:09.388Z,922.72
2017-01-31T02:28:37.345Z,922.7
2017-01-31T02:29:05.991Z,922.67
2017-01-31T02:29:34.136Z,922.66
2017-01-31T02:30:02.103Z,922.69
2017-01-31T02:30:29.972Z,922.67
2017-01-31T02:30:57.898Z,922.7
2017-01-31T02:31:25.563Z,922.73
2017-01-31T02:31:53.443Z,922.71
2017-01-31T02:32:21.314Z,922.77
2017-01-31T02:32:50.111Z,922.77
2017-01-31T02:33:18.157Z,922.78
2017-01-31T02:33:46.036Z,922.76
2017-01-31T02:34:14.014Z,922.77
2017-01-31T02:34:41.915Z,922.78
2017-01-31T02:35:09.640Z,922.8
2017-01-31T02:35:37.572Z,922.78
2017-01-31T02:36:05.366Z,922.77
2017-01-31T02:36:33.350Z,922.8
2017-01-31T02:37:00.969Z,922.76
2017-01-31T02:37:28.656Z,922.78
2017-01-31T02:37:57.422Z,922.76
2017-01-31T02:38:26.104Z,922.78
2017-01-31T02:38:54.887Z,922.76
2017-01-31T02:39:22.781Z,922.77
2017-01-31T02:39:51.518Z,922.79
2017-01-31T02:40:19.493Z,922.8
2017-01-31T02:40:47.442Z,922.79
2017-01-31T02:41:15.432Z,922.8
2017-01-31T02:41:43.424Z,922.81
2017-01-31T02:42:12.089Z,922.83
2017-01-31T02:42:39.845Z,922.8
2017-01-31T02:43:07.720Z,922.85
2017-01-31T02:43:35.588Z,922.83
2017-01-31T02:44:03.440Z,922.83
2017-01-31T02:44:31.424Z,922.82
2017-01-31T02:44:59.404Z,922.84
2017-01-31T02:45:28.353Z,922.87
2017-01-31T02:45:56.242Z,922.84
2017-01-31T02:46:24.158Z,922.77
2017-01-31T02:46:52.151Z,922.82
2017-01-31T02:47:58.325Z,922.77
2017-01-31T02:48:26.201Z,922.79
2017-01-31T02:48:54.876Z,922.82
2017-01-31T02:49:22.761Z,922.84
2017-01-31T02:49:50.476Z,922.78
2017-01-31T02:50:19.156Z,922.8
2017-01-31T02:50:47.289Z,922.76
2017-01-31T02:51:15.961Z,922.82
2017-01-31T02:51:43.966Z,922.79
2017-01-31T02:52:12.756Z,922.79
2017-01-31T02:52:40.646Z,922.79
2017-01-31T02:53:09.449Z,922.76
2017-01-31T02:53:37.328Z,922.74
2017-01-31T02:54:05.216Z,922.74
2017-01-31T02:54:33.979Z,922.78
2017-01-31T02:55:01.972Z,922.74
2017-01-31T02:55:30.714Z,922.74
2017-01-31T02:55:58.692Z,922.74
2017-01-31T02:56:26.583Z,922.75
2017-01-31T02:56:54.594Z,922.74
2017-01-31T02:57:22.500Z,922.72
2017-01-31T02:57:50.367Z,922.75
2017-01-31T02:58:18.268Z,922.7
2017-01-31T02:58:46.942Z,922.7
2017-01-31T02:59:14.943Z,922.71
2017-01-31T02:59:42.961Z,922.7
2017-01-31T03:00:10.850Z,922.7
2017-01-31T03:00:38.747Z,922.69
2017-01-31T03:01:06.725Z,922.71
2017-01-31T03:01:34.682Z,922.7
2017-01-31T03:02:02.492Z,922.71
2017-01-31T03:02:30.437Z,922.74
2017-01-31T03:02:58.330Z,922.71
2017-01-31T03:03:26.243Z,922.75
2017-01-31T03:03:54.094Z,922.75
2017-01-31T03:04:22.585Z,922.74
2017-01-31T03:04:50.563Z,922.77
2017-01-31T03:05:18.439Z,922.8
2017-01-31T03:05:48.224Z,922.78
2017-01-31T03:06:16.046Z,922.79
2017-01-31T03:06:44.020Z,922.8
2017-01-31T03:07:11.929Z,922.75
2017-01-31T03:07:40.592Z,922.77
2017-01-31T03:08:08.533Z,922.79
2017-01-31T03:08:37.125Z,922.79
2017-01-31T03:09:04.903Z,922.79
2017-01-31T03:09:32.862Z,922.72
2017-01-31T03:10:01.580Z,922.76
2017-01-31T03:10:30.130Z,922.78
2017-01-31T03:10:58.007Z,922.77
2017-01-31T03:11:26.687Z,922.74
2017-01-31T03:11:55.499Z,922.73
2017-01-31T03:12:23.446Z,922.78
2017-01-31T03:12:52.197Z,922.76
2017-01-31T03:13:19.995Z,922.68
2017-01-31T03:13:47.817Z,922.7
2017-01-31T03:14:16.600Z,922.73
2017-01-31T03:14:44.529Z,922.73
2017-01-31T03:15:12.501Z,922.71
2017-01-31T03:15:41.092Z,922.7
2017-01-31T03:16:09.768Z,922.71
2017-01-31T03:16:37.538Z,922.67
2017-01-31T03:17:05.345Z,922.65
2017-01-31T03:17:33.143Z,922.6
2017-01-31T03:18:01.752Z,922.63
2017-01-31T03:18:29.463Z,922.6
2017-01-31T03:18:57.329Z,922.55
2017-01-31T03:19:26.096Z,922.57
2017-01-31T03:19:53.958Z,922.57
2017-01-31T03:20:21.766Z,922.54
2017-01-31T03:20:49.776Z,922.53
2017-01-31T03:21:17.727Z,922.53
2017-01-31T03:21:46.457Z,922.53
2017-01-31T03:22:14.419Z,922.51
2017-01-31T03:22:42.386Z,922.53
2017-01-31T03:23:11.030Z,922.51
2017-01-31T03:23:38.924Z,922.58
2017-01-31T03:24:06.735Z,922.48
2017-01-31T03:24:34.747Z,922.5
2017-01-31T03:25:05.089Z,922.52
2017-01-31T03:25:32.879Z,922.49
2017-01-31T03:26:00.875Z,922.46
2017-01-31T03:27:07.049Z,922.46
2017-01-31T03:27:35.798Z,922.47
2017-01-31T03:28:03.682Z,922.48
2017-01-31T03:28:33.248Z,922.4
2017-01-31T03:29:01.225Z,922.46
2017-01-31T03:29:30.701Z,922.45
2017-01-31T03:29:58.676Z,922.5
2017-01-31T03:30:26.548Z,922.42
2017-01-31T03:30:54.363Z,922.44
2017-01-31T03:31:22.274Z,922.44
2017-01-31T03:31:50.073Z,922.4
2017-01-31T03:32:18.027Z,922.41
2017-01-31T03:32:45.996Z,922.37
2017-01-31T03:33:13.698Z,922.4
2017-01-31T03:33:41.480Z,922.39
2017-01-31T03:34:09.474Z,922.38
2017-01-31T03:34:37.342Z,922.38
2017-01-31T03:35:05.141Z,922.39
2017-01-31T03:35:33.035Z,922.4
2017-01-31T03:36:01.209Z,922.35
2017-01-31T03:36:29.116Z,922.4
2017-01-31T03:36:57.072Z,922.36
2017-01-31T03:37:24.965Z,922.36
2017-01-31T03:37:52.861Z,922.36
2017-01-31T03:38:20.867Z,922.37
2017-01-31T03:38:48.880Z,922.33
2017-01-31T03:39:16.855Z,922.35
2017-01-31T03:39:46.345Z,922.32
2017-01-31T03:40:14.150Z,922.28
2017-01-31T03:40:42.118Z,922.32
2017-01-31T03:41:09.937Z,922.29
2017-01-31T03:41:37.884Z,922.26
2017-01-31T03:42:05.767Z,922.3
2017-01-31T03:42:33.685Z,922.32
2017-01-31T03:43:01.628Z,922.28
2017-01-31T03:43:30.383Z,922.28
2017-01-31T03:43:58.274Z,922.31
2017-01-31T03:44:26.845Z,922.28
2017-01-31T03:44:54.789Z,922.28
2017-01-31T03:45:23.574Z,922.25
2017-01-31T03:45:51.459Z,922.23
2017-01-31T03:46:19.452Z,922.24
2017-01-31T03:46:47.404Z,922.21
2017-01-31T03:47:15.259Z,922.22
2017-01-31T03:47:43.940Z,922.2
2017-01-31T03:48:11.907Z,922.18
2017-01-31T03:48:39.772Z,922.19
2017-01-31T03:49:07.804Z,922.19
2017-01-31T03:49:35.642Z,922.16
2017-01-31T03:50:03.421Z,922.16
2017-01-31T03:50:32.101Z,922.18
2017-01-31T03:51:00.883Z,922.18
2017-01-31T03:51:28.826Z,922.15
2017-01-31T03:51:56.793Z,922.19
2017-01-31T03:52:26.170Z,922.14
2017-01-31T03:52:54.069Z,922.14
2017-01-31T03:53:21.969Z,922.14
2017-01-31T03:53:49.887Z,922.15
2017-01-31T03:54:17.769Z,922.11
2017-01-31T03:54:45.665Z,922.06
2017-01-31T03:55:13.655Z,922.07
2017-01-31T03:55:41.258Z,922.01
2017-01-31T03:56:09.153Z,921.97
2017-01-31T03:56:37.134Z,922.02
2017-01-31T03:57:05.125Z,921.99
2017-01-31T03:57:32.926Z,922
2017-01-31T03:58:00.873Z,922.05
2017-01-31T03:58:28.668Z,922.02
2017-01-31T03:58:56.521Z,922.02
2017-01-31T03:59:24.423Z,922.07
2017-01-31T03:59:52.408Z,922.06
2017-01-31T04:00:20.276Z,922.1
2017-01-31T04:00:48.124Z,922.06
2017-01-31T04:01:16.079Z,922.13
2017-01-31T04:01:44.036Z,922.13
2017-01-31T04:02:11.897Z,922.1
2017-01-31T04:02:39.877Z,922.11
2017-01-31T04:03:07.860Z,922.11
2017-01-31T04:03:35.882Z,922.11
2017-01-31T04:04:03.670Z,922.14
2017-01-31T04:04:31.548Z,922.17
2017-01-31T04:04:59.544Z,922.12
2017-01-31T04:06:06.046Z,922.14
2017-01-31T04:06:34.020Z,922.14
2017-01-31T04:07:01.898Z,922.17
2017-01-31T04:07:29.701Z,922.15
2017-01-31T04:07:57.403Z,922.13
2017-01-31T04:08:26.182Z,922.12
2017-01-31T04:08:54.150Z,922.1
2017-01-31T04:09:21.928Z,922.1
2017-01-31T04:09:49.749Z,922.11
2017-01-31T04:10:17.753Z,922.08
2017-01-31T04:10:45.652Z,922.09
2017-01-31T04:11:13.576Z,922.09
2017-01-31T04:11:41.360Z,922.1
2017-01-31T04:12:09.255Z,922.06
2017-01-31T04:12:37.922Z,922.02
2017-01-31T04:13:05.917Z,922.08
2017-01-31T04:13:33.870Z,922.07
2017-01-31T04:14:01.667Z,922.03
2017-01-31T04:14:29.653Z,922.08
2017-01-31T04:14:57.487Z,922.03
2017-01-31T04:15:25.304Z,922.06
2017-01-31T04:15:53.260Z,922.09
2017-01-31T04:16:21.244Z,922.11
2017-01-31T04:16:49.140Z,922.14
2017-01-31T04:17:16.871Z,922.15
2017-01-31T04:17:44.893Z,922.14
2017-01-31T04:18:12.776Z,922.15
2017-01-31T04:18:40.670Z,922.11
2017-01-31T04:19:08.564Z,922.1
2017-01-31T04:19:36.438Z,922.09
2017-01-31T04:20:04.355Z,922.1
2017-01-31T04:20:32.311Z,922.09
2017-01-31T04:21:00.282Z,922.06
2017-01-31T04:21:28.210Z,922.02
2017-01-31T04:21:56.946Z,922.04
2017-01-31T04:22:24.915Z,921.95
2017-01-31T04:22:52.991Z,921.92
2017-01-31T04:23:20.683Z,921.98
2017-01-31T04:23:48.540Z,921.93
2017-01-31T04:24:17.053Z,921.99
2017-01-31T04:24:45.030Z,921.94
2017-01-31T04:25:12.933Z,921.94
2017-01-31T04:25:40.715Z,921.94
2017-01-31T04:26:08.576Z,921.96
2017-01-31T04:26:36.557Z,921.92
2017-01-31T04:27:06.009Z,921.92
2017-01-31T04:27:33.874Z,921.95
2017-01-31T04:28:01.891Z,921.92
2017-01-31T04:28:29.817Z,921.91
2017-01-31T04:28:58.564Z,921.95
2017-01-31T04:29:27.233Z,921.92
2017-01-31T04:29:55.916Z,921.91
2017-01-31T04:30:25.508Z,921.91
2017-01-31T04:30:54.191Z,921.92
2017-01-31T04:31:22.777Z,921.93
2017-01-31T04:31:50.763Z,921.88
2017-01-31T04:32:18.752Z,921.91
2017-01-31T04:32:46.588Z,921.89
2017-01-31T04:33:14.475Z,921.87
2017-01-31T04:33:42.361Z,921.86
2017-01-31T04:34:10.168Z,921.9
2017-01-31T04:34:38.118Z,921.91
2017-01-31T04:35:06.010Z,921.85
2017-01-31T04:35:34.789Z,921.85
2017-01-31T04:36:02.783Z,921.92
2017-01-31T04:36:31.015Z,921.87
2017-01-31T04:36:59.058Z,921.88
2017-01-31T04:37:27.816Z,921.93
2017-01-31T04:37:55.676Z,921.86
2017-01-31T04:38:23.673Z,921.88
2017-01-31T04:38:51.483Z,921.87
2017-01-31T04:39:19.441Z,921.82
2017-01-31T04:39:47.286Z,921.86
2017-01-31T04:40:15.251Z,921.83
2017-01-31T04:40:42.942Z,921.84
2017-01-31T04:41:11.683Z,921.83
2017-01-31T04:41:40.462Z,921.82
2017-01-31T04:42:08.172Z,921.78
2017-01-31T04:42:36.099Z,921.84
2017-01-31T04:43:04.085Z,921.86
2017-01-31T04:43:31.878Z,921.84
2017-01-31T04:43:59.785Z,921.84
2017-01-31T04:45:05.947Z,921.81
2017-01-31T04:45:33.826Z,921.81
2017-01-31T04:46:02.493Z,921.81
2017-01-31T04:46:30.476Z,921.83
2017-01-31T04:46:58.359Z,921.8
2017-01-31T04:47:26.170Z,921.8
2017-01-31T04:47:53.967Z,921.83
2017-01-31T04:48:21.833Z,921.78
2017-01-31T04:48:49.830Z,921.85
2017-01-31T04:49:17.658Z,921.81
2017-01-31T04:49:46.336Z,921.78
2017-01-31T04:50:14.270Z,921.8
2017-01-31T04:50:42.064Z,921.79
2017-01-31T04:51:10.666Z,921.8
2017-01-31T04:51:38.695Z,921.81
2017-01-31T04:52:06.668Z,921.73
2017-01-31T04:52:34.618Z,921.79
2017-01-31T04:53:03.326Z,921.79
2017-01-31T04:53:31.129Z,921.79
2017-01-31T04:53:59.831Z,921.75
2017-01-31T04:54:27.731Z,921.77
2017-01-31T04:54:56.401Z,921.78
2017-01-31T04:55:24.217Z,921.72
2017-01-31T04:55:52.110Z,921.74
2017-01-31T04:56:20.108Z,921.76
2017-01-31T04:56:48.126Z,921.78
2017-01-31T04:57:15.887Z,921.7
2017-01-31T04:57:43.853Z,921.69
2017-01-31T04:58:13.419Z,921.7
2017-01-31T04:58:42.250Z,921.7
2017-01-31T04:59:10.142Z,921.67
2017-01-31T04:59:38.874Z,921.71
2017-01-31T05:00:06.776Z,921.65
2017-01-31T05:00:34.611Z,921.66
2017-01-31T05:01:02.134Z,921.64
2017-01-31T05:01:29.997Z,921.64
2017-01-31T05:01:58.691Z,921.6
2017-01-31T05:02:26.602Z,921.6
2017-01-31T05:02:55.351Z,921.59
2017-01-31T05:03:23.259Z,921.59
2017-01-31T05:03:51.150Z,921.57
2017-01-31T05:04:19.148Z,921.57
2017-01-31T05:04:47.695Z,921.6
2017-01-31T05:05:15.627Z,921.54
2017-01-31T05:05:44.253Z,921.56
2017-01-31T05:06:13.007Z,921.53
2017-01-31T05:06:41.181Z,921.58
2017-01-31T05:07:09.072Z,921.51
2017-01-31T05:07:37.730Z,921.52
2017-01-31T05:08:05.459Z,921.53
2017-01-31T05:08:34.219Z,921.53
2017-01-31T05:09:02.187Z,921.54
2017-01-31T05:09:29.992Z,921.53
2017-01-31T05:09:57.835Z,921.54
2017-01-31T05:10:25.742Z,921.54
2017-01-31T05:10:53.552Z,921.54
2017-01-31T05:11:21.588Z,921.55
2017-01-31T05:11:49.465Z,921.46
2017-01-31T05:12:17.380Z,921.5
2017-01-31T05:12:46.021Z,921.55
2017-01-31T05:13:13.998Z,921.45
2017-01-31T05:13:41.984Z,921.51
2017-01-31T05:14:09.927Z,921.5
2017-01-31T05:14:37.810Z,921.52
2017-01-31T05:15:05.707Z,921.47
2017-01-31T05:15:34.405Z,921.43
2017-01-31T05:16:02.179Z,921.48
2017-01-31T05:16:30.700Z,921.49
2017-01-31T05:16:58.637Z,921.45
2017-01-31T05:17:26.400Z,921.51
2017-01-31T05:17:54.372Z,921.5
2017-01-31T05:18:22.343Z,921.51
2017-01-31T05:18:50.336Z,921.49
2017-01-31T05:19:18.494Z,921.51
2017-01-31T05:19:47.346Z,921.48
2017-01-31T05:20:15.375Z,921.42
2017-01-31T05:20:43.479Z,921.44
2017-01-31T05:21:11.449Z,921.47
2017-01-31T05:21:40.292Z,921.47
2017-01-31T05:22:08.967Z,921.46
2017-01-31T05:22:36.961Z,921.43
2017-01-31T05:23:06.528Z,921.45
2017-01-31T05:24:12.728Z,921.41
2017-01-31T05:24:40.515Z,921.44
2017-01-31T05:25:09.349Z,921.35
2017-01-31T05:25:37.271Z,921.37
2017-01-31T05:26:05.302Z,921.33
2017-01-31T05:26:34.826Z,921.33
2017-01-31T05:27:02.807Z,921.35
2017-01-31T05:27:30.928Z,921.39
2017-01-31T05:27:58.840Z,921.39
2017-01-31T05:28:26.777Z,921.34
2017-01-31T05:28:54.786Z,921.35
2017-01-31T05:29:22.869Z,921.39
2017-01-31T05:29:51.730Z,921.39
2017-01-31T05:30:20.571Z,921.41
2017-01-31T05:30:49.332Z,921.4
2017-01-31T05:31:17.421Z,921.45
2017-01-31T05:31:45.495Z,921.41
2017-01-31T05:32:13.500Z,921.4
2017-01-31T05:32:41.511Z,921.43
2017-01-31T05:33:09.624Z,921.42
2017-01-31T05:33:37.751Z,921.46
2017-01-31T05:34:05.683Z,921.48
2017-01-31T05:34:33.672Z,921.5
2017-01-31T05:35:01.686Z,921.47
2017-01-31T05:35:29.693Z,921.53
2017-01-31T05:35:57.769Z,921.52
2017-01-31T05:36:25.789Z,921.54
2017-01-31T05:36:54.014Z,921.53
2017-01-31T05:37:22.026Z,921.56
2017-01-31T05:37:50.078Z,921.52
2017-01-31T05:38:18.166Z,921.54
2017-01-31T05:38:46.024Z,921.53
2017-01-31T05:39:13.965Z,921.52
2017-01-31T05:39:42.084Z,921.48
2017-01-31T05:40:10.744Z,921.59
2017-01-31T05:40:39.499Z,921.57
2017-01-31T05:41:07.506Z,921.58
2017-01-31T05:41:35.520Z,921.56
2017-01-31T05:42:03.406Z,921.59
2017-01-31T05:42:31.494Z,921.63
2017-01-31T05:42:59.401Z,921.6
2017-01-31T05:43:27.498Z,921.61
2017-01-31T05:43:57.084Z,921.59
2017-01-31T05:44:25.117Z,921.65
2017-01-31T05:44:53.234Z,921.67
2017-01-31T05:45:21.901Z,921.62
2017-01-31T05:45:50.795Z,921.65
2017-01-31T05:46:18.786Z,921.62
2017-01-31T05:46:47.540Z,921.65
2017-01-31T05:47:15.645Z,921.67
2017-01-31T05:47:45.265Z,921.69
2017-01-31T05:48:14.023Z,921.66
2017-01-31T05:48:41.959Z,921.64
2017-01-31T05:49:09.908Z,921.64
2017-01-31T05:49:38.598Z,921.67
2017-01-31T05:50:06.597Z,921.65
2017-01-31T05:50:35.259Z,921.67
2017-01-31T05:51:03.248Z,921.67
2017-01-31T05:51:31.353Z,921.62
2017-01-31T05:51:59.593Z,921.69
2017-01-31T05:52:27.581Z,921.67
2017-01-31T05:52:55.680Z,921.63
2017-01-31T05:53:23.638Z,921.67
2017-01-31T05:53:51.538Z,921.71
2017-01-31T05:54:20.299Z,921.71
2017-01-31T05:54:49.175Z,921.7
2017-01-31T05:55:17.075Z,921.68
2017-01-31T05:55:45.974Z,921.68
2017-01-31T05:56:14.697Z,921.67
2017-01-31T05:56:43.592Z,921.66
2017-01-31T05:57:11.614Z,921.63
2017-01-31T05:57:39.311Z,921.64
2017-01-31T05:58:08.060Z,921.65